sensor_id;sensor_type;location;lat;lon;timestamp;temperature;humidity
71731;DHT22;59575;43.486;3.666;2022-12-05T00:01:34;3.30;74.80
71731;DHT22;59575;43.486;3.666;2022-12-05T00:04:04;3.20;75.00
71731;DHT22;59575;43.486;3.666;2022-12-05T00:06:30;3.20;74.50
71731;DHT22;59575;43.486;3.666;2022-12-05T00:08:57;3.20;74.40
71731;DHT22;59575;43.486;3.666;2022-12-05T00:11:26;3.20;74.40
71731;DHT22;59575;43.486;3.666;2022-12-05T00:13:54;3.20;74.30
71731;DHT22;59575;43.486;3.666;2022-12-05T00:16:23;3.20;74.30
71731;DHT22;59575;43.486;3.666;2022-12-05T00:18:49;3.30;73.70
71731;DHT22;59575;43.486;3.666;2022-12-05T00:21:21;3.20;73.80
71731;DHT22;59575;43.486;3.666;2022-12-05T00:23:48;3.10;74.60
71731;DHT22;59575;43.486;3.666;2022-12-05T00:26:14;3.00;74.70
71731;DHT22;59575;43.486;3.666;2022-12-05T00:28:40;3.00;74.60
71731;DHT22;59575;43.486;3.666;2022-12-05T00:31:08;3.10;74.60
71731;DHT22;59575;43.486;3.666;2022-12-05T00:33:35;3.10;74.30
71731;DHT22;59575;43.486;3.666;2022-12-05T00:36:03;3.20;74.40
71731;DHT22;59575;43.486;3.666;2022-12-05T00:38:30;3.10;74.40
71731;DHT22;59575;43.486;3.666;2022-12-05T00:40:55;3.10;74.30
71731;DHT22;59575;43.486;3.666;2022-12-05T00:43:21;3.10;74.60
71731;DHT22;59575;43.486;3.666;2022-12-05T00:45:47;3.00;74.50
71731;DHT22;59575;43.486;3.666;2022-12-05T00:48:12;3.00;74.50
71731;DHT22;59575;43.486;3.666;2022-12-05T00:50:38;3.00;74.40
71731;DHT22;59575;43.486;3.666;2022-12-05T00:53:04;3.10;74.40
71731;DHT22;59575;43.486;3.666;2022-12-05T00:55:29;3.20;74.40
71731;DHT22;59575;43.486;3.666;2022-12-05T00:57:55;3.20;74.30
71731;DHT22;59575;43.486;3.666;2022-12-05T01:00:20;3.20;74.40
71731;DHT22;59575;43.486;3.666;2022-12-05T01:02:46;3.20;74.10
71731;DHT22;59575;43.486;3.666;2022-12-05T01:05:12;3.30;73.70
71731;DHT22;59575;43.486;3.666;2022-12-05T01:07:37;3.30;73.60
71731;DHT22;59575;43.486;3.666;2022-12-05T01:10:03;3.20;73.90
71731;DHT22;59575;43.486;3.666;2022-12-05T01:12:29;3.20;74.20
71731;DHT22;59575;43.486;3.666;2022-12-05T01:14:55;3.20;74.40
71731;DHT22;59575;43.486;3.666;2022-12-05T01:17:21;3.20;74.00
71731;DHT22;59575;43.486;3.666;2022-12-05T01:19:46;3.20;74.00
71731;DHT22;59575;43.486;3.666;2022-12-05T01:22:12;3.20;73.90
71731;DHT22;59575;43.486;3.666;2022-12-05T01:24:37;3.20;73.60
71731;DHT22;59575;43.486;3.666;2022-12-05T01:27:03;3.20;73.60
71731;DHT22;59575;43.486;3.666;2022-12-05T01:29:29;3.30;73.50
71731;DHT22;59575;43.486;3.666;2022-12-05T01:31:55;3.30;73.20
71731;DHT22;59575;43.486;3.666;2022-12-05T01:34:21;3.20;73.50
71731;DHT22;59575;43.486;3.666;2022-12-05T01:36:47;3.20;73.30
71731;DHT22;59575;43.486;3.666;2022-12-05T01:39:14;3.20;73.40
71731;DHT22;59575;43.486;3.666;2022-12-05T01:41:45;3.20;73.90
71731;DHT22;59575;43.486;3.666;2022-12-05T01:46:48;3.20;73.30
71731;DHT22;59575;43.486;3.666;2022-12-05T01:49:33;3.20;73.20
71731;DHT22;59575;43.486;3.666;2022-12-05T01:52:06;3.30;72.90
71731;DHT22;59575;43.486;3.666;2022-12-05T01:54:34;3.30;73.00
71731;DHT22;59575;43.486;3.666;2022-12-05T01:57:03;3.30;72.70
71731;DHT22;59575;43.486;3.666;2022-12-05T01:59:33;3.30;72.80
71731;DHT22;59575;43.486;3.666;2022-12-05T02:02:01;3.20;73.00
71731;DHT22;59575;43.486;3.666;2022-12-05T02:04:27;3.20;73.10
71731;DHT22;59575;43.486;3.666;2022-12-05T02:06:53;3.20;73.10
71731;DHT22;59575;43.486;3.666;2022-12-05T02:09:19;3.10;73.50
71731;DHT22;59575;43.486;3.666;2022-12-05T02:11:53;3.10;73.80
71731;DHT22;59575;43.486;3.666;2022-12-05T02:30:53;2.80;74.00
71731;DHT22;59575;43.486;3.666;2022-12-05T02:36:04;2.90;73.70
71731;DHT22;59575;43.486;3.666;2022-12-05T02:46:39;2.80;74.70
71731;DHT22;59575;43.486;3.666;2022-12-05T02:49:08;2.80;74.70
71731;DHT22;59575;43.486;3.666;2022-12-05T02:51:39;2.90;74.80
71731;DHT22;59575;43.486;3.666;2022-12-05T02:54:10;2.90;74.90
71731;DHT22;59575;43.486;3.666;2022-12-05T02:56:37;2.80;74.40
71731;DHT22;59575;43.486;3.666;2022-12-05T02:59:04;2.90;73.60
71731;DHT22;59575;43.486;3.666;2022-12-05T03:01:31;2.90;74.00
71731;DHT22;59575;43.486;3.666;2022-12-05T03:03:59;2.90;72.80
71731;DHT22;59575;43.486;3.666;2022-12-05T03:06:31;3.00;72.70
71731;DHT22;59575;43.486;3.666;2022-12-05T03:09:22;3.00;72.80
71731;DHT22;59575;43.486;3.666;2022-12-05T03:12:01;3.00;72.90
71731;DHT22;59575;43.486;3.666;2022-12-05T03:14:37;3.00;73.20
71731;DHT22;59575;43.486;3.666;2022-12-05T03:17:07;3.00;73.30
71731;DHT22;59575;43.486;3.666;2022-12-05T03:25:16;2.90;72.90
71731;DHT22;59575;43.486;3.666;2022-12-05T03:30:13;2.90;72.90
71731;DHT22;59575;43.486;3.666;2022-12-05T03:33:09;2.90;73.20
71731;DHT22;59575;43.486;3.666;2022-12-05T03:44:33;3.10;71.20
71731;DHT22;59575;43.486;3.666;2022-12-05T03:47:18;3.20;70.70
71731;DHT22;59575;43.486;3.666;2022-12-05T03:49:57;3.30;70.60
71731;DHT22;59575;43.486;3.666;2022-12-05T03:52:32;3.30;70.30
71731;DHT22;59575;43.486;3.666;2022-12-05T03:55:01;3.30;70.20
71731;DHT22;59575;43.486;3.666;2022-12-05T03:57:36;3.20;70.20
71731;DHT22;59575;43.486;3.666;2022-12-05T04:00:09;3.30;70.30
71731;DHT22;59575;43.486;3.666;2022-12-05T04:02:44;3.20;70.30
71731;DHT22;59575;43.486;3.666;2022-12-05T04:05:26;3.20;70.60
71731;DHT22;59575;43.486;3.666;2022-12-05T04:08:26;3.20;70.50
71731;DHT22;59575;43.486;3.666;2022-12-05T04:10:53;3.20;70.30
71731;DHT22;59575;43.486;3.666;2022-12-05T04:13:33;3.30;70.30
71731;DHT22;59575;43.486;3.666;2022-12-05T04:16:21;3.30;70.30
71731;DHT22;59575;43.486;3.666;2022-12-05T04:21:47;3.10;70.90
71731;DHT22;59575;43.486;3.666;2022-12-05T04:24:29;2.90;71.40
71731;DHT22;59575;43.486;3.666;2022-12-05T04:30:12;2.90;71.90
71731;DHT22;59575;43.486;3.666;2022-12-05T04:35:30;2.90;72.20
71731;DHT22;59575;43.486;3.666;2022-12-05T04:38:06;2.90;72.50
71731;DHT22;59575;43.486;3.666;2022-12-05T04:40:37;2.70;72.70
71731;DHT22;59575;43.486;3.666;2022-12-05T04:43:05;2.70;72.90
71731;DHT22;59575;43.486;3.666;2022-12-05T04:45:32;2.60;73.60
71731;DHT22;59575;43.486;3.666;2022-12-05T04:48:01;2.60;73.30
71731;DHT22;59575;43.486;3.666;2022-12-05T04:50:31;2.60;73.90
71731;DHT22;59575;43.486;3.666;2022-12-05T04:52:59;2.60;74.30
71731;DHT22;59575;43.486;3.666;2022-12-05T04:55:26;2.60;74.20
71731;DHT22;59575;43.486;3.666;2022-12-05T04:58:06;2.60;74.40
71731;DHT22;59575;43.486;3.666;2022-12-05T05:00:37;2.60;74.40
71731;DHT22;59575;43.486;3.666;2022-12-05T05:03:23;2.60;74.60
71731;DHT22;59575;43.486;3.666;2022-12-05T05:05:53;2.60;74.50
71731;DHT22;59575;43.486;3.666;2022-12-05T05:08:21;2.60;74.50
71731;DHT22;59575;43.486;3.666;2022-12-05T05:13:20;2.70;73.20
71731;DHT22;59575;43.486;3.666;2022-12-05T05:15:45;2.70;73.50
71731;DHT22;59575;43.486;3.666;2022-12-05T05:18:11;2.70;73.60
71731;DHT22;59575;43.486;3.666;2022-12-05T05:20:37;2.70;74.20
71731;DHT22;59575;43.486;3.666;2022-12-05T05:23:03;2.70;73.90
71731;DHT22;59575;43.486;3.666;2022-12-05T05:25:28;2.50;74.00
71731;DHT22;59575;43.486;3.666;2022-12-05T05:27:55;2.50;73.50
71731;DHT22;59575;43.486;3.666;2022-12-05T05:30:22;2.60;74.20
71731;DHT22;59575;43.486;3.666;2022-12-05T05:32:49;2.50;73.90
71731;DHT22;59575;43.486;3.666;2022-12-05T05:35:15;2.40;73.80
71731;DHT22;59575;43.486;3.666;2022-12-05T05:37:41;2.30;73.80
71731;DHT22;59575;43.486;3.666;2022-12-05T05:40:09;2.30;74.00
71731;DHT22;59575;43.486;3.666;2022-12-05T05:42:35;2.30;74.10
71731;DHT22;59575;43.486;3.666;2022-12-05T05:45:01;2.30;74.10
71731;DHT22;59575;43.486;3.666;2022-12-05T05:47:27;2.30;73.90
71731;DHT22;59575;43.486;3.666;2022-12-05T05:49:53;2.30;74.30
71731;DHT22;59575;43.486;3.666;2022-12-05T05:52:18;2.30;74.00
71731;DHT22;59575;43.486;3.666;2022-12-05T05:54:44;2.30;74.60
71731;DHT22;59575;43.486;3.666;2022-12-05T05:57:09;2.40;74.90
71731;DHT22;59575;43.486;3.666;2022-12-05T05:59:35;2.40;75.20
71731;DHT22;59575;43.486;3.666;2022-12-05T06:02:01;2.40;74.90
71731;DHT22;59575;43.486;3.666;2022-12-05T06:04:26;2.40;75.00
71731;DHT22;59575;43.486;3.666;2022-12-05T06:06:52;2.40;75.00
71731;DHT22;59575;43.486;3.666;2022-12-05T06:09:18;2.40;74.60
71731;DHT22;59575;43.486;3.666;2022-12-05T06:11:43;2.50;74.90
71731;DHT22;59575;43.486;3.666;2022-12-05T06:14:09;2.50;75.00
71731;DHT22;59575;43.486;3.666;2022-12-05T06:16:35;2.50;74.90
71731;DHT22;59575;43.486;3.666;2022-12-05T06:19:00;2.50;74.90
71731;DHT22;59575;43.486;3.666;2022-12-05T06:21:26;2.40;74.70
71731;DHT22;59575;43.486;3.666;2022-12-05T06:23:52;2.30;74.80
71731;DHT22;59575;43.486;3.666;2022-12-05T06:26:20;2.40;74.90
71731;DHT22;59575;43.486;3.666;2022-12-05T06:28:46;2.40;74.50
71731;DHT22;59575;43.486;3.666;2022-12-05T06:31:15;2.40;74.60
71731;DHT22;59575;43.486;3.666;2022-12-05T06:33:42;2.40;74.60
71731;DHT22;59575;43.486;3.666;2022-12-05T06:36:11;2.50;74.40
71731;DHT22;59575;43.486;3.666;2022-12-05T06:38:37;2.50;74.00
71731;DHT22;59575;43.486;3.666;2022-12-05T06:41:08;2.40;73.80
71731;DHT22;59575;43.486;3.666;2022-12-05T06:43:34;2.40;74.00
71731;DHT22;59575;43.486;3.666;2022-12-05T06:46:04;2.30;74.20
71731;DHT22;59575;43.486;3.666;2022-12-05T06:48:29;2.30;74.60
71731;DHT22;59575;43.486;3.666;2022-12-05T06:50:55;2.30;75.10
71731;DHT22;59575;43.486;3.666;2022-12-05T06:53:21;2.30;74.50
71731;DHT22;59575;43.486;3.666;2022-12-05T06:56:08;2.30;74.50
71731;DHT22;59575;43.486;3.666;2022-12-05T06:58:39;2.30;73.80
71731;DHT22;59575;43.486;3.666;2022-12-05T07:01:04;2.30;73.80
71731;DHT22;59575;43.486;3.666;2022-12-05T07:03:49;2.30;74.00
71731;DHT22;59575;43.486;3.666;2022-12-05T07:06:16;2.20;73.90
71731;DHT22;59575;43.486;3.666;2022-12-05T07:08:42;2.20;74.00
71731;DHT22;59575;43.486;3.666;2022-12-05T07:11:08;2.30;75.00
71731;DHT22;59575;43.486;3.666;2022-12-05T07:13:33;2.50;74.10
71731;DHT22;59575;43.486;3.666;2022-12-05T07:15:59;2.40;73.70
71731;DHT22;59575;43.486;3.666;2022-12-05T07:18:26;2.50;73.30
71731;DHT22;59575;43.486;3.666;2022-12-05T07:21:00;2.40;73.40
71731;DHT22;59575;43.486;3.666;2022-12-05T07:23:26;2.40;73.50
71731;DHT22;59575;43.486;3.666;2022-12-05T07:25:52;2.50;73.20
71731;DHT22;59575;43.486;3.666;2022-12-05T07:28:18;2.50;73.70
71731;DHT22;59575;43.486;3.666;2022-12-05T07:30:43;2.50;73.40
71731;DHT22;59575;43.486;3.666;2022-12-05T07:33:09;2.50;73.30
71731;DHT22;59575;43.486;3.666;2022-12-05T07:35:35;2.50;73.30
71731;DHT22;59575;43.486;3.666;2022-12-05T07:38:00;2.40;73.10
71731;DHT22;59575;43.486;3.666;2022-12-05T07:40:26;2.50;73.40
71731;DHT22;59575;43.486;3.666;2022-12-05T07:42:52;2.60;73.00
71731;DHT22;59575;43.486;3.666;2022-12-05T07:45:19;3.10;71.40
71731;DHT22;59575;43.486;3.666;2022-12-05T07:47:44;3.50;70.20
71731;DHT22;59575;43.486;3.666;2022-12-05T07:50:11;3.80;69.30
71731;DHT22;59575;43.486;3.666;2022-12-05T07:52:36;4.10;68.10
71731;DHT22;59575;43.486;3.666;2022-12-05T07:55:02;4.30;67.10
71731;DHT22;59575;43.486;3.666;2022-12-05T07:57:29;4.50;66.20
71731;DHT22;59575;43.486;3.666;2022-12-05T07:59:55;4.70;65.80
71731;DHT22;59575;43.486;3.666;2022-12-05T08:02:20;4.80;65.30
71731;DHT22;59575;43.486;3.666;2022-12-05T08:04:46;5.00;64.90
71731;DHT22;59575;43.486;3.666;2022-12-05T08:07:12;5.10;64.80
71731;DHT22;59575;43.486;3.666;2022-12-05T08:09:37;5.20;64.80
71731;DHT22;59575;43.486;3.666;2022-12-05T08:12:03;5.30;63.90
71731;DHT22;59575;43.486;3.666;2022-12-05T08:14:29;5.40;63.60
71731;DHT22;59575;43.486;3.666;2022-12-05T08:16:54;5.60;63.40
71731;DHT22;59575;43.486;3.666;2022-12-05T08:19:20;5.70;62.80
71731;DHT22;59575;43.486;3.666;2022-12-05T08:21:46;5.80;61.90
71731;DHT22;59575;43.486;3.666;2022-12-05T08:24:12;5.90;61.90
71731;DHT22;59575;43.486;3.666;2022-12-05T08:26:38;6.00;61.60
71731;DHT22;59575;43.486;3.666;2022-12-05T08:29:09;6.20;61.60
71731;DHT22;59575;43.486;3.666;2022-12-05T08:31:40;6.20;61.60
71731;DHT22;59575;43.486;3.666;2022-12-05T08:34:06;6.20;61.60
71731;DHT22;59575;43.486;3.666;2022-12-05T08:36:32;6.40;61.70
71731;DHT22;59575;43.486;3.666;2022-12-05T08:39:00;6.40;60.70
71731;DHT22;59575;43.486;3.666;2022-12-05T08:41:27;6.50;60.10
71731;DHT22;59575;43.486;3.666;2022-12-05T08:43:59;6.60;60.50
71731;DHT22;59575;43.486;3.666;2022-12-05T08:46:25;6.50;61.30
71731;DHT22;59575;43.486;3.666;2022-12-05T08:48:51;6.40;60.90
71731;DHT22;59575;43.486;3.666;2022-12-05T08:51:17;6.30;61.30
71731;DHT22;59575;43.486;3.666;2022-12-05T08:53:42;6.30;61.90
71731;DHT22;59575;43.486;3.666;2022-12-05T08:56:09;6.20;61.60
71731;DHT22;59575;43.486;3.666;2022-12-05T08:58:35;6.20;61.80
71731;DHT22;59575;43.486;3.666;2022-12-05T09:01:10;6.20;62.30
71731;DHT22;59575;43.486;3.666;2022-12-05T09:03:37;6.30;61.80
71731;DHT22;59575;43.486;3.666;2022-12-05T09:06:14;6.50;61.70
71731;DHT22;59575;43.486;3.666;2022-12-05T09:08:41;6.80;61.30
71731;DHT22;59575;43.486;3.666;2022-12-05T09:11:18;7.00;60.50
71731;DHT22;59575;43.486;3.666;2022-12-05T09:13:45;7.20;60.70
71731;DHT22;59575;43.486;3.666;2022-12-05T09:16:17;7.30;60.50
71731;DHT22;59575;43.486;3.666;2022-12-05T09:18:44;7.30;60.30
71731;DHT22;59575;43.486;3.666;2022-12-05T09:21:12;7.40;60.80
71731;DHT22;59575;43.486;3.666;2022-12-05T09:23:38;7.50;61.10
71731;DHT22;59575;43.486;3.666;2022-12-05T09:26:05;7.60;61.20
71731;DHT22;59575;43.486;3.666;2022-12-05T09:28:32;7.70;61.00
71731;DHT22;59575;43.486;3.666;2022-12-05T09:31:00;7.80;60.40
71731;DHT22;59575;43.486;3.666;2022-12-05T09:33:27;7.90;60.20
71731;DHT22;59575;43.486;3.666;2022-12-05T09:35:53;8.00;60.40
71731;DHT22;59575;43.486;3.666;2022-12-05T09:38:19;8.10;60.50
71731;DHT22;59575;43.486;3.666;2022-12-05T09:40:45;8.10;60.10
71731;DHT22;59575;43.486;3.666;2022-12-05T09:43:39;8.20;60.00
71731;DHT22;59575;43.486;3.666;2022-12-05T09:46:36;8.20;60.10
71731;DHT22;59575;43.486;3.666;2022-12-05T09:49:08;8.20;59.10
71731;DHT22;59575;43.486;3.666;2022-12-05T09:51:39;8.20;58.60
71731;DHT22;59575;43.486;3.666;2022-12-05T09:54:08;8.20;58.20
71731;DHT22;59575;43.486;3.666;2022-12-05T09:56:35;8.20;58.20
71731;DHT22;59575;43.486;3.666;2022-12-05T09:59:01;8.20;58.60
71731;DHT22;59575;43.486;3.666;2022-12-05T10:23:59;8.80;55.60
71731;DHT22;59575;43.486;3.666;2022-12-05T10:26:33;8.80;55.70
71731;DHT22;59575;43.486;3.666;2022-12-05T10:29:28;8.90;56.40
71731;DHT22;59575;43.486;3.666;2022-12-05T10:34:36;8.90;56.20
71731;DHT22;59575;43.486;3.666;2022-12-05T10:37:17;8.90;56.70
71731;DHT22;59575;43.486;3.666;2022-12-05T10:39:44;8.90;56.20
71731;DHT22;59575;43.486;3.666;2022-12-05T10:42:24;8.90;56.00
71731;DHT22;59575;43.486;3.666;2022-12-05T10:44:58;8.90;55.60
71731;DHT22;59575;43.486;3.666;2022-12-05T10:47:25;8.90;56.00
71731;DHT22;59575;43.486;3.666;2022-12-05T10:49:51;8.90;56.10
71731;DHT22;59575;43.486;3.666;2022-12-05T10:52:19;8.90;56.50
71731;DHT22;59575;43.486;3.666;2022-12-05T10:54:53;8.90;55.80
71731;DHT22;59575;43.486;3.666;2022-12-05T10:57:25;9.00;56.10
71731;DHT22;59575;43.486;3.666;2022-12-05T10:59:52;9.00;56.40
71731;DHT22;59575;43.486;3.666;2022-12-05T11:02:30;9.10;56.50
71731;DHT22;59575;43.486;3.666;2022-12-05T11:04:57;9.20;56.30
71731;DHT22;59575;43.486;3.666;2022-12-05T11:07:28;9.30;55.50
71731;DHT22;59575;43.486;3.666;2022-12-05T11:09:55;9.30;55.10
71731;DHT22;59575;43.486;3.666;2022-12-05T11:12:29;9.30;55.80
71731;DHT22;59575;43.486;3.666;2022-12-05T11:17:46;9.40;55.80
71731;DHT22;59575;43.486;3.666;2022-12-05T11:22:40;9.40;56.30
71731;DHT22;59575;43.486;3.666;2022-12-05T11:27:50;9.40;55.40
71731;DHT22;59575;43.486;3.666;2022-12-05T11:30:21;9.50;55.80
71731;DHT22;59575;43.486;3.666;2022-12-05T11:32:47;9.50;56.70
71731;DHT22;59575;43.486;3.666;2022-12-05T11:35:26;9.50;56.30
71731;DHT22;59575;43.486;3.666;2022-12-05T11:38:01;9.50;56.40
71731;DHT22;59575;43.486;3.666;2022-12-05T11:41:16;9.50;55.20
71731;DHT22;59575;43.486;3.666;2022-12-05T11:43:17;9.40;53.90
71731;DHT22;59575;43.486;3.666;2022-12-05T11:45:50;9.50;54.90
71731;DHT22;59575;43.486;3.666;2022-12-05T11:54:02;9.80;52.80
71731;DHT22;59575;43.486;3.666;2022-12-05T11:56:38;9.80;54.60
71731;DHT22;59575;43.486;3.666;2022-12-05T12:02:12;9.80;55.40
71731;DHT22;59575;43.486;3.666;2022-12-05T12:04:53;10.00;53.40
71731;DHT22;59575;43.486;3.666;2022-12-05T12:27:07;9.90;53.60
71731;DHT22;59575;43.486;3.666;2022-12-05T12:38:00;10.00;52.50
71731;DHT22;59575;43.486;3.666;2022-12-05T12:43:13;10.20;50.90
71731;DHT22;59575;43.486;3.666;2022-12-05T12:51:22;10.30;53.10
71731;DHT22;59575;43.486;3.666;2022-12-05T13:04:39;10.30;52.50
71731;DHT22;59575;43.486;3.666;2022-12-05T13:07:16;10.20;52.50
71731;DHT22;59575;43.486;3.666;2022-12-05T13:09:57;10.10;53.20
71731;DHT22;59575;43.486;3.666;2022-12-05T13:12:28;10.10;54.70
71731;DHT22;59575;43.486;3.666;2022-12-05T13:15:04;10.10;54.90
71731;DHT22;59575;43.486;3.666;2022-12-05T13:17:32;10.10;55.60
71731;DHT22;59575;43.486;3.666;2022-12-05T13:19:58;10.10;55.80
71731;DHT22;59575;43.486;3.666;2022-12-05T13:22:26;10.00;55.00
71731;DHT22;59575;43.486;3.666;2022-12-05T13:24:53;10.00;55.20
71731;DHT22;59575;43.486;3.666;2022-12-05T13:27:22;9.90;56.00
71731;DHT22;59575;43.486;3.666;2022-12-05T13:30:02;10.10;55.40
71731;DHT22;59575;43.486;3.666;2022-12-05T13:32:37;10.10;56.10
71731;DHT22;59575;43.486;3.666;2022-12-05T13:35:19;10.10;56.40
71731;DHT22;59575;43.486;3.666;2022-12-05T13:38:04;10.20;56.80
71731;DHT22;59575;43.486;3.666;2022-12-05T13:40:51;10.30;56.90
71731;DHT22;59575;43.486;3.666;2022-12-05T13:43:41;10.30;56.80
71731;DHT22;59575;43.486;3.666;2022-12-05T13:46:11;10.30;56.60
71731;DHT22;59575;43.486;3.666;2022-12-05T13:48:45;10.30;57.60
71731;DHT22;59575;43.486;3.666;2022-12-05T13:51:33;10.40;57.10
71731;DHT22;59575;43.486;3.666;2022-12-05T13:54:11;10.40;57.30
71731;DHT22;59575;43.486;3.666;2022-12-05T13:56:56;10.50;56.30
71731;DHT22;59575;43.486;3.666;2022-12-05T14:07:56;10.30;54.10
71731;DHT22;59575;43.486;3.666;2022-12-05T14:15:49;10.20;54.70
71731;DHT22;59575;43.486;3.666;2022-12-05T14:18:49;10.20;53.90
71731;DHT22;59575;43.486;3.666;2022-12-05T14:24:44;10.20;54.50
71731;DHT22;59575;43.486;3.666;2022-12-05T14:32:31;10.20;53.80
71731;DHT22;59575;43.486;3.666;2022-12-05T14:35:40;10.20;53.80
71731;DHT22;59575;43.486;3.666;2022-12-05T14:38:27;10.30;54.00
71731;DHT22;59575;43.486;3.666;2022-12-05T14:40:55;10.30;54.20
71731;DHT22;59575;43.486;3.666;2022-12-05T14:43:26;10.30;54.80
71731;DHT22;59575;43.486;3.666;2022-12-05T14:46:01;10.20;55.20
71731;DHT22;59575;43.486;3.666;2022-12-05T14:48:39;10.10;55.90
71731;DHT22;59575;43.486;3.666;2022-12-05T14:53:53;10.00;57.00
71731;DHT22;59575;43.486;3.666;2022-12-05T14:56:21;10.00;57.50
71731;DHT22;59575;43.486;3.666;2022-12-05T15:01:42;10.00;57.40
71731;DHT22;59575;43.486;3.666;2022-12-05T15:04:19;10.00;56.80
71731;DHT22;59575;43.486;3.666;2022-12-05T15:12:26;9.50;58.40
71731;DHT22;59575;43.486;3.666;2022-12-05T15:17:37;9.30;58.90
71731;DHT22;59575;43.486;3.666;2022-12-05T15:20:07;9.10;60.00
71731;DHT22;59575;43.486;3.666;2022-12-05T15:22:36;9.10;60.70
71731;DHT22;59575;43.486;3.666;2022-12-05T15:25:26;8.90;61.70
71731;DHT22;59575;43.486;3.666;2022-12-05T15:27:58;8.80;62.50
71731;DHT22;59575;43.486;3.666;2022-12-05T15:30:24;8.80;62.90
71731;DHT22;59575;43.486;3.666;2022-12-05T15:32:50;8.70;63.30
71731;DHT22;59575;43.486;3.666;2022-12-05T15:35:16;8.70;63.20
71731;DHT22;59575;43.486;3.666;2022-12-05T15:37:50;8.60;63.40
71731;DHT22;59575;43.486;3.666;2022-12-05T15:40:20;8.50;63.70
71731;DHT22;59575;43.486;3.666;2022-12-05T15:42:54;8.40;64.20
71731;DHT22;59575;43.486;3.666;2022-12-05T15:45:28;8.40;65.20
71731;DHT22;59575;43.486;3.666;2022-12-05T15:47:56;8.30;65.80
71731;DHT22;59575;43.486;3.666;2022-12-05T15:58:50;7.90;67.70
71731;DHT22;59575;43.486;3.666;2022-12-05T16:01:23;7.90;67.10
71731;DHT22;59575;43.486;3.666;2022-12-05T16:04:34;7.90;67.40
71731;DHT22;59575;43.486;3.666;2022-12-05T16:06:47;7.90;67.60
71731;DHT22;59575;43.486;3.666;2022-12-05T16:09:22;7.90;67.60
71731;DHT22;59575;43.486;3.666;2022-12-05T16:12:03;7.90;67.80
71731;DHT22;59575;43.486;3.666;2022-12-05T16:14:37;7.80;67.90
71731;DHT22;59575;43.486;3.666;2022-12-05T16:17:05;7.80;68.30
71731;DHT22;59575;43.486;3.666;2022-12-05T16:19:33;7.80;68.30
71731;DHT22;59575;43.486;3.666;2022-12-05T16:24:31;7.60;69.10
71731;DHT22;59575;43.486;3.666;2022-12-05T16:27:20;7.60;69.20
71731;DHT22;59575;43.486;3.666;2022-12-05T16:32:33;7.30;70.00
71731;DHT22;59575;43.486;3.666;2022-12-05T16:35:00;7.30;70.40
71731;DHT22;59575;43.486;3.666;2022-12-05T16:37:27;7.10;71.00
71731;DHT22;59575;43.486;3.666;2022-12-05T16:39:54;7.10;71.30
71731;DHT22;59575;43.486;3.666;2022-12-05T16:42:29;7.10;71.60
71731;DHT22;59575;43.486;3.666;2022-12-05T16:44:57;7.20;70.60
71731;DHT22;59575;43.486;3.666;2022-12-05T16:55:35;7.10;70.40
71731;DHT22;59575;43.486;3.666;2022-12-05T16:58:03;7.00;70.50
71731;DHT22;59575;43.486;3.666;2022-12-05T17:00:29;7.00;70.60
71731;DHT22;59575;43.486;3.666;2022-12-05T17:02:58;6.90;71.30
71731;DHT22;59575;43.486;3.666;2022-12-05T17:05:24;6.90;71.30
71731;DHT22;59575;43.486;3.666;2022-12-05T17:07:50;6.90;71.00
71731;DHT22;59575;43.486;3.666;2022-12-05T17:10:17;6.90;71.00
71731;DHT22;59575;43.486;3.666;2022-12-05T17:12:43;6.90;71.00
71731;DHT22;59575;43.486;3.666;2022-12-05T17:15:19;7.00;70.40
71731;DHT22;59575;43.486;3.666;2022-12-05T17:17:45;6.90;70.60
71731;DHT22;59575;43.486;3.666;2022-12-05T17:20:12;6.90;70.40
71731;DHT22;59575;43.486;3.666;2022-12-05T17:22:40;6.80;70.70
71731;DHT22;59575;43.486;3.666;2022-12-05T17:25:20;6.80;71.10
71731;DHT22;59575;43.486;3.666;2022-12-05T17:27:48;6.70;71.20
71731;DHT22;59575;43.486;3.666;2022-12-05T17:30:14;6.70;71.40
71731;DHT22;59575;43.486;3.666;2022-12-05T17:32:39;6.70;71.50
71731;DHT22;59575;43.486;3.666;2022-12-05T17:35:15;6.60;71.60
71731;DHT22;59575;43.486;3.666;2022-12-05T17:37:41;6.60;71.60
71731;DHT22;59575;43.486;3.666;2022-12-05T17:40:07;6.60;71.50
71731;DHT22;59575;43.486;3.666;2022-12-05T17:42:33;6.70;71.30
71731;DHT22;59575;43.486;3.666;2022-12-05T17:44:59;6.60;71.30
71731;DHT22;59575;43.486;3.666;2022-12-05T17:47:24;6.60;71.60
71731;DHT22;59575;43.486;3.666;2022-12-05T17:49:50;6.60;71.70
71731;DHT22;59575;43.486;3.666;2022-12-05T17:52:16;6.50;71.90
71731;DHT22;59575;43.486;3.666;2022-12-05T17:54:41;6.50;72.00
71731;DHT22;59575;43.486;3.666;2022-12-05T17:57:07;6.50;72.10
71731;DHT22;59575;43.486;3.666;2022-12-05T17:59:32;6.60;71.90
71731;DHT22;59575;43.486;3.666;2022-12-05T18:01:58;6.50;72.00
71731;DHT22;59575;43.486;3.666;2022-12-05T18:04:24;6.50;72.20
71731;DHT22;59575;43.486;3.666;2022-12-05T18:06:50;6.50;71.90
71731;DHT22;59575;43.486;3.666;2022-12-05T18:09:16;6.50;72.10
71731;DHT22;59575;43.486;3.666;2022-12-05T18:11:41;6.40;72.20
71731;DHT22;59575;43.486;3.666;2022-12-05T18:14:07;6.40;71.70
71731;DHT22;59575;43.486;3.666;2022-12-05T18:16:34;6.50;71.10
71731;DHT22;59575;43.486;3.666;2022-12-05T18:18:59;6.50;71.10
71731;DHT22;59575;43.486;3.666;2022-12-05T18:21:26;6.50;71.00
71731;DHT22;59575;43.486;3.666;2022-12-05T18:23:51;6.40;70.90
71731;DHT22;59575;43.486;3.666;2022-12-05T18:26:17;6.40;70.40
71731;DHT22;59575;43.486;3.666;2022-12-05T18:28:43;6.30;70.70
71731;DHT22;59575;43.486;3.666;2022-12-05T18:31:15;6.20;70.20
71731;DHT22;59575;43.486;3.666;2022-12-05T18:33:43;6.10;70.30
71731;DHT22;59575;43.486;3.666;2022-12-05T18:36:11;6.10;70.20
71731;DHT22;59575;43.486;3.666;2022-12-05T18:38:38;6.00;70.40
71731;DHT22;59575;43.486;3.666;2022-12-05T18:41:06;5.90;70.70
71731;DHT22;59575;43.486;3.666;2022-12-05T18:43:32;5.90;70.60
71731;DHT22;59575;43.486;3.666;2022-12-05T18:45:59;6.00;70.20
71731;DHT22;59575;43.486;3.666;2022-12-05T18:48:25;6.00;70.30
71731;DHT22;59575;43.486;3.666;2022-12-05T18:50:51;6.00;70.50
71731;DHT22;59575;43.486;3.666;2022-12-05T18:53:17;5.90;70.70
71731;DHT22;59575;43.486;3.666;2022-12-05T18:55:43;5.90;70.50
71731;DHT22;59575;43.486;3.666;2022-12-05T18:58:09;5.90;70.30
71731;DHT22;59575;43.486;3.666;2022-12-05T19:00:35;5.90;70.00
71731;DHT22;59575;43.486;3.666;2022-12-05T19:03:01;5.90;70.10
71731;DHT22;59575;43.486;3.666;2022-12-05T19:05:29;5.90;69.80
71731;DHT22;59575;43.486;3.666;2022-12-05T19:07:56;5.90;69.90
71731;DHT22;59575;43.486;3.666;2022-12-05T19:10:21;5.90;69.70
71731;DHT22;59575;43.486;3.666;2022-12-05T19:12:47;5.80;70.50
71731;DHT22;59575;43.486;3.666;2022-12-05T19:15:13;5.60;71.40
71731;DHT22;59575;43.486;3.666;2022-12-05T19:17:39;5.50;71.80
71731;DHT22;59575;43.486;3.666;2022-12-05T19:20:05;5.40;72.30
71731;DHT22;59575;43.486;3.666;2022-12-05T19:22:31;5.30;71.80
71731;DHT22;59575;43.486;3.666;2022-12-05T19:24:57;5.30;71.60
71731;DHT22;59575;43.486;3.666;2022-12-05T19:27:23;5.20;71.40